sensor_id;sensor_type;location;lat;lon;timestamp;pressure;altitude;pressure_sealevel;temperature
20103;BMP180;10210;52.284;9.892;2023-10-08T00:01:21;100981.00;;;20.10
20103;BMP180;10210;52.284;9.892;2023-10-08T00:03:48;100966.00;;;20.10
20103;BMP180;10210;52.284;9.892;2023-10-08T00:06:21;100980.00;;;20.10
20103;BMP180;10210;52.284;9.892;2023-10-08T00:08:49;100989.00;;;20.10
20103;BMP180;10210;52.284;9.892;2023-10-08T00:11:16;101004.00;;;20.10
20103;BMP180;10210;52.284;9.892;2023-10-08T00:13:43;101004.00;;;20.00
20103;BMP180;10210;52.284;9.892;2023-10-08T00:16:13;101027.00;;;20.00
20103;BMP180;10210;52.284;9.892;2023-10-08T00:18:43;101029.00;;;20.00
20103;BMP180;10210;52.284;9.892;2023-10-08T00:21:18;101028.00;;;19.90
20103;BMP180;10210;52.284;9.892;2023-10-08T00:23:53;101009.00;;;19.90
20103;BMP180;10210;52.284;9.892;2023-10-08T00:26:25;101028.00;;;19.90
20103;BMP180;10210;52.284;9.892;2023-10-08T00:29:00;101038.00;;;19.90
20103;BMP180;10210;52.284;9.892;2023-10-08T00:31:27;101027.00;;;19.90
20103;BMP180;10210;52.284;9.892;2023-10-08T00:33:58;101030.00;;;19.90
20103;BMP180;10210;52.284;9.892;2023-10-08T00:36:23;101030.00;;;19.90
20103;BMP180;10210;52.284;9.892;2023-10-08T00:38:52;101044.00;;;19.90
20103;BMP180;10210;52.284;9.892;2023-10-08T00:41:24;101058.00;;;19.90
20103;BMP180;10210;52.284;9.892;2023-10-08T00:43:54;101060.00;;;19.90
20103;BMP180;10210;52.284;9.892;2023-10-08T00:46:27;101066.00;;;19.90
20103;BMP180;10210;52.284;9.892;2023-10-08T00:49:00;101074.00;;;19.90
20103;BMP180;10210;52.284;9.892;2023-10-08T00:54:21;101100.00;;;19.90
20103;BMP180;10210;52.284;9.892;2023-10-08T00:56:50;101113.00;;;19.90
20103;BMP180;10210;52.284;9.892;2023-10-08T00:59:23;101116.00;;;19.80
20103;BMP180;10210;52.284;9.892;2023-10-08T01:01:51;101115.00;;;19.80
20103;BMP180;10210;52.284;9.892;2023-10-08T01:04:20;101129.00;;;19.70
20103;BMP180;10210;52.284;9.892;2023-10-08T01:06:54;101120.00;;;19.70
20103;BMP180;10210;52.284;9.892;2023-10-08T01:09:22;101128.00;;;19.60
20103;BMP180;10210;52.284;9.892;2023-10-08T01:15:01;101153.00;;;19.50
20103;BMP180;10210;52.284;9.892;2023-10-08T01:17:42;101159.00;;;19.40
20103;BMP180;10210;52.284;9.892;2023-10-08T01:20:22;101176.00;;;19.30
20103;BMP180;10210;52.284;9.892;2023-10-08T01:23:09;101177.00;;;19.20
20103;BMP180;10210;52.284;9.892;2023-10-08T01:25:43;101186.00;;;19.20
20103;BMP180;10210;52.284;9.892;2023-10-08T01:28:09;101189.00;;;19.10
20103;BMP180;10210;52.284;9.892;2023-10-08T01:30:43;101174.00;;;19.00
20103;BMP180;10210;52.284;9.892;2023-10-08T01:33:14;101191.00;;;18.90
20103;BMP180;10210;52.284;9.892;2023-10-08T01:35:42;101182.00;;;18.80
20103;BMP180;10210;52.284;9.892;2023-10-08T01:38:08;101189.00;;;18.80
20103;BMP180;10210;52.284;9.892;2023-10-08T01:40:42;101202.00;;;18.80
20103;BMP180;10210;52.284;9.892;2023-10-08T01:43:09;101201.00;;;18.80
20103;BMP180;10210;52.284;9.892;2023-10-08T01:45:37;101190.00;;;18.80
20103;BMP180;10210;52.284;9.892;2023-10-08T01:48:07;101161.00;;;18.80
20103;BMP180;10210;52.284;9.892;2023-10-08T01:50:36;101188.00;;;18.80
20103;BMP180;10210;52.284;9.892;2023-10-08T01:53:03;101191.00;;;18.80
20103;BMP180;10210;52.284;9.892;2023-10-08T01:55:32;101202.00;;;18.80
20103;BMP180;10210;52.284;9.892;2023-10-08T01:58:13;101212.00;;;18.80
20103;BMP180;10210;52.284;9.892;2023-10-08T02:00:43;101219.00;;;18.80
20103;BMP180;10210;52.284;9.892;2023-10-08T02:03:12;101174.00;;;18.80
20103;BMP180;10210;52.284;9.892;2023-10-08T02:05:42;101212.00;;;18.90
20103;BMP180;10210;52.284;9.892;2023-10-08T02:08:12;101231.00;;;18.90
20103;BMP180;10210;52.284;9.892;2023-10-08T02:10:43;101213.00;;;18.90
20103;BMP180;10210;52.284;9.892;2023-10-08T02:13:10;101212.00;;;18.80
20103;BMP180;10210;52.284;9.892;2023-10-08T02:15:36;101221.00;;;18.90
20103;BMP180;10210;52.284;9.892;2023-10-08T02:18:06;101206.00;;;18.80
20103;BMP180;10210;52.284;9.892;2023-10-08T02:20:32;101197.00;;;18.80
20103;BMP180;10210;52.284;9.892;2023-10-08T02:22:58;101201.00;;;18.80
20103;BMP180;10210;52.284;9.892;2023-10-08T02:25:26;101200.00;;;18.80
20103;BMP180;10210;52.284;9.892;2023-10-08T02:27:51;101207.00;;;18.80
20103;BMP180;10210;52.284;9.892;2023-10-08T02:30:17;101202.00;;;18.80
20103;BMP180;10210;52.284;9.892;2023-10-08T02:32:44;101188.00;;;18.80
20103;BMP180;10210;52.284;9.892;2023-10-08T02:35:10;101192.00;;;18.90
20103;BMP180;10210;52.284;9.892;2023-10-08T02:37:37;101188.00;;;18.90
20103;BMP180;10210;52.284;9.892;2023-10-08T02:40:10;101189.00;;;18.90
20103;BMP180;10210;52.284;9.892;2023-10-08T02:43:04;101190.00;;;18.90
20103;BMP180;10210;52.284;9.892;2023-10-08T02:45:34;101190.00;;;18.90
20103;BMP180;10210;52.284;9.892;2023-10-08T02:48:05;101191.00;;;18.90
20103;BMP180;10210;52.284;9.892;2023-10-08T02:50:41;101195.00;;;19.00
20103;BMP180;10210;52.284;9.892;2023-10-08T02:53:08;101188.00;;;19.00
20103;BMP180;10210;52.284;9.892;2023-10-08T02:55:38;101181.00;;;19.00
20103;BMP180;10210;52.284;9.892;2023-10-08T02:58:13;101190.00;;;19.00
20103;BMP180;10210;52.284;9.892;2023-10-08T03:00:47;101209.00;;;19.00
20103;BMP180;10210;52.284;9.892;2023-10-08T03:03:17;101215.00;;;19.00
20103;BMP180;10210;52.284;9.892;2023-10-08T03:05:49;101223.00;;;19.00
20103;BMP180;10210;52.284;9.892;2023-10-08T03:08:17;101216.00;;;18.90
20103;BMP180;10210;52.284;9.892;2023-10-08T03:10:47;101192.00;;;18.90
20103;BMP180;10210;52.284;9.892;2023-10-08T03:13:17;101183.00;;;18.90
20103;BMP180;10210;52.284;9.892;2023-10-08T03:15:44;101191.00;;;18.80
20103;BMP180;10210;52.284;9.892;2023-10-08T03:18:26;101196.00;;;18.80
20103;BMP180;10210;52.284;9.892;2023-10-08T03:21:02;101204.00;;;18.80
20103;BMP180;10210;52.284;9.892;2023-10-08T03:23:30;101192.00;;;18.80
20103;BMP180;10210;52.284;9.892;2023-10-08T03:26:01;101186.00;;;18.80
20103;BMP180;10210;52.284;9.892;2023-10-08T03:28:35;101211.00;;;18.80
20103;BMP180;10210;52.284;9.892;2023-10-08T03:31:02;101223.00;;;18.80
20103;BMP180;10210;52.284;9.892;2023-10-08T03:33:35;101237.00;;;18.80
20103;BMP180;10210;52.284;9.892;2023-10-08T03:36:07;101249.00;;;18.80
20103;BMP180;10210;52.284;9.892;2023-10-08T03:38:48;101241.00;;;18.80
20103;BMP180;10210;52.284;9.892;2023-10-08T03:41:24;101248.00;;;18.80
20103;BMP180;10210;52.284;9.892;2023-10-08T03:43:58;101256.00;;;18.80
20103;BMP180;10210;52.284;9.892;2023-10-08T03:46:29;101257.00;;;18.80
20103;BMP180;10210;52.284;9.892;2023-10-08T03:48:56;101252.00;;;18.80
20103;BMP180;10210;52.284;9.892;2023-10-08T03:51:23;101242.00;;;18.80
20103;BMP180;10210;52.284;9.892;2023-10-08T03:53:53;101250.00;;;18.80
20103;BMP180;10210;52.284;9.892;2023-10-08T03:56:32;101258.00;;;18.80
20103;BMP180;10210;52.284;9.892;2023-10-08T03:59:02;101254.00;;;18.90
20103;BMP180;10210;52.284;9.892;2023-10-08T04:01:59;101256.00;;;18.90
20103;BMP180;10210;52.284;9.892;2023-10-08T04:04:42;101269.00;;;18.90
20103;BMP180;10210;52.284;9.892;2023-10-08T04:07:20;101263.00;;;18.80
20103;BMP180;10210;52.284;9.892;2023-10-08T04:10:00;101267.00;;;18.90
20103;BMP180;10210;52.284;9.892;2023-10-08T04:12:35;101272.00;;;18.80
20103;BMP180;10210;52.284;9.892;2023-10-08T04:15:04;101276.00;;;18.80
20103;BMP180;10210;52.284;9.892;2023-10-08T04:17:35;101283.00;;;18.80
20103;BMP180;10210;52.284;9.892;2023-10-08T04:20:10;101281.00;;;18.80
20103;BMP180;10210;52.284;9.892;2023-10-08T04:22:57;101293.00;;;18.80
20103;BMP180;10210;52.284;9.892;2023-10-08T04:25:26;101289.00;;;18.70
20103;BMP180;10210;52.284;9.892;2023-10-08T04:27:58;101304.00;;;18.70
20103;BMP180;10210;52.284;9.892;2023-10-08T04:30:35;101291.00;;;18.70
20103;BMP180;10210;52.284;9.892;2023-10-08T04:33:03;101289.00;;;18.70
20103;BMP180;10210;52.284;9.892;2023-10-08T04:35:36;101303.00;;;18.70
20103;BMP180;10210;52.284;9.892;2023-10-08T04:38:05;101303.00;;;18.70
20103;BMP180;10210;52.284;9.892;2023-10-08T04:40:37;101304.00;;;18.70
20103;BMP180;10210;52.284;9.892;2023-10-08T04:43:16;101306.00;;;18.60
20103;BMP180;10210;52.284;9.892;2023-10-08T04:46:00;101306.00;;;18.60
20103;BMP180;10210;52.284;9.892;2023-10-08T04:48:46;101299.00;;;18.60
20103;BMP180;10210;52.284;9.892;2023-10-08T04:51:11;101293.00;;;18.50
20103;BMP180;10210;52.284;9.892;2023-10-08T04:53:40;101306.00;;;18.50
20103;BMP180;10210;52.284;9.892;2023-10-08T04:56:12;101310.00;;;18.50
20103;BMP180;10210;52.284;9.892;2023-10-08T04:58:48;101307.00;;;18.40
20103;BMP180;10210;52.284;9.892;2023-10-08T05:01:19;101300.00;;;18.40
20103;BMP180;10210;52.284;9.892;2023-10-08T05:06:31;101318.00;;;18.30
20103;BMP180;10210;52.284;9.892;2023-10-08T05:09:12;101305.00;;;18.30
20103;BMP180;10210;52.284;9.892;2023-10-08T05:11:48;101308.00;;;18.30
20103;BMP180;10210;52.284;9.892;2023-10-08T05:14:19;101295.00;;;18.30
20103;BMP180;10210;52.284;9.892;2023-10-08T05:16:58;101312.00;;;18.30
20103;BMP180;10210;52.284;9.892;2023-10-08T05:19:38;101305.00;;;18.30
20103;BMP180;10210;52.284;9.892;2023-10-08T05:22:12;101319.00;;;18.30
20103;BMP180;10210;52.284;9.892;2023-10-08T05:24:54;101326.00;;;18.30
20103;BMP180;10210;52.284;9.892;2023-10-08T05:27:46;101335.00;;;18.30
20103;BMP180;10210;52.284;9.892;2023-10-08T05:30:17;101338.00;;;18.30
20103;BMP180;10210;52.284;9.892;2023-10-08T05:32:57;101363.00;;;18.30
20103;BMP180;10210;52.284;9.892;2023-10-08T05:35:35;101361.00;;;18.30
20103;BMP180;10210;52.284;9.892;2023-10-08T05:38:04;101359.00;;;18.30
20103;BMP180;10210;52.284;9.892;2023-10-08T05:40:47;101355.00;;;18.20
20103;BMP180;10210;52.284;9.892;2023-10-08T05:43:37;101373.00;;;18.20
20103;BMP180;10210;52.284;9.892;2023-10-08T05:46:21;101369.00;;;18.20
20103;BMP180;10210;52.284;9.892;2023-10-08T05:48:48;101379.00;;;18.20
20103;BMP180;10210;52.284;9.892;2023-10-08T05:51:42;101385.00;;;18.10
20103;BMP180;10210;52.284;9.892;2023-10-08T05:54:21;101380.00;;;18.10
20103;BMP180;10210;52.284;9.892;2023-10-08T05:56:53;101370.00;;;18.10
20103;BMP180;10210;52.284;9.892;2023-10-08T05:59:39;101380.00;;;18.10
20103;BMP180;10210;52.284;9.892;2023-10-08T06:02:22;101400.00;;;18.10
20103;BMP180;10210;52.284;9.892;2023-10-08T06:05:14;101395.00;;;18.10
20103;BMP180;10210;52.284;9.892;2023-10-08T06:07:51;101403.00;;;18.10
20103;BMP180;10210;52.284;9.892;2023-10-08T06:10:27;101405.00;;;18.00
20103;BMP180;10210;52.284;9.892;2023-10-08T06:13:03;101405.00;;;18.00
20103;BMP180;10210;52.284;9.892;2023-10-08T06:15:48;101409.00;;;18.00
20103;BMP180;10210;52.284;9.892;2023-10-08T06:18:19;101404.00;;;18.00
20103;BMP180;10210;52.284;9.892;2023-10-08T06:20:49;101397.00;;;18.00
20103;BMP180;10210;52.284;9.892;2023-10-08T06:23:22;101407.00;;;18.00
20103;BMP180;10210;52.284;9.892;2023-10-08T06:25:52;101421.00;;;18.00
20103;BMP180;10210;52.284;9.892;2023-10-08T06:28:32;101421.00;;;18.10
20103;BMP180;10210;52.284;9.892;2023-10-08T06:31:02;101407.00;;;18.00
20103;BMP180;10210;52.284;9.892;2023-10-08T06:36:09;101427.00;;;18.10
20103;BMP180;10210;52.284;9.892;2023-10-08T06:38:46;101416.00;;;18.10
20103;BMP180;10210;52.284;9.892;2023-10-08T06:41:14;101437.00;;;18.10
20103;BMP180;10210;52.284;9.892;2023-10-08T06:43:45;101435.00;;;18.10
20103;BMP180;10210;52.284;9.892;2023-10-08T06:46:13;101437.00;;;18.10
20103;BMP180;10210;52.284;9.892;2023-10-08T06:48:41;101429.00;;;18.10
20103;BMP180;10210;52.284;9.892;2023-10-08T06:51:13;101431.00;;;18.10
20103;BMP180;10210;52.284;9.892;2023-10-08T06:53:46;101448.00;;;18.10
20103;BMP180;10210;52.284;9.892;2023-10-08T06:56:16;101454.00;;;18.10
20103;BMP180;10210;52.284;9.892;2023-10-08T06:58:45;101469.00;;;18.10
20103;BMP180;10210;52.284;9.892;2023-10-08T07:01:21;101471.00;;;18.20
20103;BMP180;10210;52.284;9.892;2023-10-08T07:03:54;101476.00;;;18.10
20103;BMP180;10210;52.284;9.892;2023-10-08T07:06:29;101480.00;;;18.10
20103;BMP180;10210;52.284;9.892;2023-10-08T07:09:01;101484.00;;;18.10
20103;BMP180;10210;52.284;9.892;2023-10-08T07:11:51;101485.00;;;18.10
20103;BMP180;10210;52.284;9.892;2023-10-08T07:14:25;101484.00;;;18.20
20103;BMP180;10210;52.284;9.892;2023-10-08T07:17:12;101479.00;;;18.10
20103;BMP180;10210;52.284;9.892;2023-10-08T07:19:52;101485.00;;;18.10
20103;BMP180;10210;52.284;9.892;2023-10-08T07:22:18;101492.00;;;18.20
20103;BMP180;10210;52.284;9.892;2023-10-08T07:24:47;101498.00;;;18.20
20103;BMP180;10210;52.284;9.892;2023-10-08T07:27:20;101500.00;;;18.20
20103;BMP180;10210;52.284;9.892;2023-10-08T07:29:55;101502.00;;;18.30
20103;BMP180;10210;52.284;9.892;2023-10-08T07:32:21;101522.00;;;18.30
20103;BMP180;10210;52.284;9.892;2023-10-08T07:34:47;101516.00;;;18.30
20103;BMP180;10210;52.284;9.892;2023-10-08T07:37:13;101516.00;;;18.40
20103;BMP180;10210;52.284;9.892;2023-10-08T07:39:42;101513.00;;;18.40
20103;BMP180;10210;52.284;9.892;2023-10-08T07:42:12;101511.00;;;18.40
20103;BMP180;10210;52.284;9.892;2023-10-08T07:44:38;101488.00;;;18.40
20103;BMP180;10210;52.284;9.892;2023-10-08T07:47:08;101496.00;;;18.40
20103;BMP180;10210;52.284;9.892;2023-10-08T07:49:38;101502.00;;;18.50
20103;BMP180;10210;52.284;9.892;2023-10-08T07:52:04;101504.00;;;18.70
20103;BMP180;10210;52.284;9.892;2023-10-08T07:54:30;101518.00;;;19.00
20103;BMP180;10210;52.284;9.892;2023-10-08T07:57:01;101511.00;;;19.20
20103;BMP180;10210;52.284;9.892;2023-10-08T07:59:43;101519.00;;;19.50
20103;BMP180;10210;52.284;9.892;2023-10-08T08:02:15;101514.00;;;19.80
20103;BMP180;10210;52.284;9.892;2023-10-08T08:04:43;101527.00;;;20.10
20103;BMP180;10210;52.284;9.892;2023-10-08T08:07:11;101526.00;;;20.40
20103;BMP180;10210;52.284;9.892;2023-10-08T08:09:50;101534.00;;;20.50
20103;BMP180;10210;52.284;9.892;2023-10-08T08:12:27;101536.00;;;20.60
20103;BMP180;10210;52.284;9.892;2023-10-08T08:14:54;101528.00;;;20.60
20103;BMP180;10210;52.284;9.892;2023-10-08T08:17:23;101537.00;;;20.60
20103;BMP180;10210;52.284;9.892;2023-10-08T08:19:50;101535.00;;;20.70
20103;BMP180;10210;52.284;9.892;2023-10-08T08:22:18;101541.00;;;20.90
20103;BMP180;10210;52.284;9.892;2023-10-08T08:24:53;101550.00;;;21.00
20103;BMP180;10210;52.284;9.892;2023-10-08T08:27:21;101563.00;;;21.20
20103;BMP180;10210;52.284;9.892;2023-10-08T08:29:57;101569.00;;;21.30
20103;BMP180;10210;52.284;9.892;2023-10-08T08:32:38;101567.00;;;21.40
20103;BMP180;10210;52.284;9.892;2023-10-08T08:35:11;101559.00;;;21.40
20103;BMP180;10210;52.284;9.892;2023-10-08T08:37:38;101552.00;;;21.50
20103;BMP180;10210;52.284;9.892;2023-10-08T08:40:05;101560.00;;;21.60
20103;BMP180;10210;52.284;9.892;2023-10-08T08:42:52;101570.00;;;21.70
20103;BMP180;10210;52.284;9.892;2023-10-08T08:45:22;101570.00;;;21.80
20103;BMP180;10210;52.284;9.892;2023-10-08T08:47:50;101563.00;;;22.00
20103;BMP180;10210;52.284;9.892;2023-10-08T08:50:17;101566.00;;;22.10
20103;BMP180;10210;52.284;9.892;2023-10-08T08:52:45;101570.00;;;22.20
20103;BMP180;10210;52.284;9.892;2023-10-08T08:55:14;101580.00;;;22.50
20103;BMP180;10210;52.284;9.892;2023-10-08T08:57:50;101584.00;;;22.70
20103;BMP180;10210;52.284;9.892;2023-10-08T09:00:19;101586.00;;;22.80
20103;BMP180;10210;52.284;9.892;2023-10-08T09:02:47;101594.00;;;23.00
20103;BMP180;10210;52.284;9.892;2023-10-08T09:05:13;101586.00;;;23.20
20103;BMP180;10210;52.284;9.892;2023-10-08T09:08:02;101584.00;;;23.40
20103;BMP180;10210;52.284;9.892;2023-10-08T09:10:31;101593.00;;;23.50
20103;BMP180;10210;52.284;9.892;2023-10-08T09:13:05;101616.00;;;23.50
20103;BMP180;10210;52.284;9.892;2023-10-08T09:15:31;101622.00;;;23.50
20103;BMP180;10210;52.284;9.892;2023-10-08T09:18:01;101612.00;;;23.50
20103;BMP180;10210;52.284;9.892;2023-10-08T09:20:29;101618.00;;;23.40
20103;BMP180;10210;52.284;9.892;2023-10-08T09:23:26;101606.00;;;23.30
20103;BMP180;10210;52.284;9.892;2023-10-08T09:25:52;101612.00;;;23.50
20103;BMP180;10210;52.284;9.892;2023-10-08T09:28:28;101621.00;;;23.50
20103;BMP180;10210;52.284;9.892;2023-10-08T09:30:55;101624.00;;;23.60
20103;BMP180;10210;52.284;9.892;2023-10-08T09:33:24;101630.00;;;23.60
20103;BMP180;10210;52.284;9.892;2023-10-08T09:35:54;101629.00;;;23.70
20103;BMP180;10210;52.284;9.892;2023-10-08T09:38:23;101630.00;;;23.70
20103;BMP180;10210;52.284;9.892;2023-10-08T09:40:49;101616.00;;;23.70
20103;BMP180;10210;52.284;9.892;2023-10-08T09:43:19;101624.00;;;23.60
20103;BMP180;10210;52.284;9.892;2023-10-08T09:45:52;101630.00;;;23.40
20103;BMP180;10210;52.284;9.892;2023-10-08T09:48:22;101629.00;;;23.30
20103;BMP180;10210;52.284;9.892;2023-10-08T09:50:53;101625.00;;;23.20
20103;BMP180;10210;52.284;9.892;2023-10-08T09:53:35;101628.00;;;23.20
20103;BMP180;10210;52.284;9.892;2023-10-08T09:56:13;101626.00;;;23.30
20103;BMP180;10210;52.284;9.892;2023-10-08T09:58:44;101622.00;;;23.30
20103;BMP180;10210;52.284;9.892;2023-10-08T10:01:11;101622.00;;;23.40
20103;BMP180;10210;52.284;9.892;2023-10-08T10:03:42;101605.00;;;23.50
20103;BMP180;10210;52.284;9.892;2023-10-08T10:06:13;101626.00;;;23.50
20103;BMP180;10210;52.284;9.892;2023-10-08T10:08:42;101619.00;;;23.50
20103;BMP180;10210;52.284;9.892;2023-10-08T10:11:08;101626.00;;;23.50
20103;BMP180;10210;52.284;9.892;2023-10-08T10:13:41;101619.00;;;23.40
20103;BMP180;10210;52.284;9.892;2023-10-08T10:16:07;101604.00;;;23.40
20103;BMP180;10210;52.284;9.892;2023-10-08T10:18:33;101608.00;;;23.30
20103;BMP180;10210;52.284;9.892;2023-10-08T10:23:41;101618.00;;;23.20
20103;BMP180;10210;52.284;9.892;2023-10-08T10:29:18;101637.00;;;23.10
20103;BMP180;10210;52.284;9.892;2023-10-08T10:31:48;101625.00;;;23.10
20103;BMP180;10210;52.284;9.892;2023-10-08T10:34:21;101631.00;;;23.00
20103;BMP180;10210;52.284;9.892;2023-10-08T10:36:50;101640.00;;;22.90
20103;BMP180;10210;52.284;9.892;2023-10-08T10:39:22;101650.00;;;22.90
20103;BMP180;10210;52.284;9.892;2023-10-08T10:41:58;101661.00;;;22.80
20103;BMP180;10210;52.284;9.892;2023-10-08T10:44:28;101652.00;;;22.70
20103;BMP180;10210;52.284;9.892;2023-10-08T10:46:59;101639.00;;;22.70
20103;BMP180;10210;52.284;9.892;2023-10-08T10:49:45;101656.00;;;22.50
20103;BMP180;10210;52.284;9.892;2023-10-08T10:52:21;101648.00;;;22.40
20103;BMP180;10210;52.284;9.892;2023-10-08T10:55:08;101653.00;;;22.40
20103;BMP180;10210;52.284;9.892;2023-10-08T10:57:55;101637.00;;;22.30
20103;BMP180;10210;52.284;9.892;2023-10-08T11:00:41;101634.00;;;22.30
20103;BMP180;10210;52.284;9.892;2023-10-08T11:03:13;101647.00;;;22.30
20103;BMP180;10210;52.284;9.892;2023-10-08T11:05:46;101645.00;;;22.40
20103;BMP180;10210;52.284;9.892;2023-10-08T11:08:16;101650.00;;;22.40
20103;BMP180;10210;52.284;9.892;2023-10-08T11:10:47;101661.00;;;22.40
20103;BMP180;10210;52.284;9.892;2023-10-08T11:13:17;101649.00;;;22.40
20103;BMP180;10210;52.284;9.892;2023-10-08T11:15:47;101621.00;;;22.40
20103;BMP180;10210;52.284;9.892;2023-10-08T11:18:20;101623.00;;;22.40
20103;BMP180;10210;52.284;9.892;2023-10-08T11:20:48;101636.00;;;22.40
20103;BMP180;10210;52.284;9.892;2023-10-08T11:23:37;101651.00;;;22.50
20103;BMP180;10210;52.284;9.892;2023-10-08T11:26:05;101652.00;;;22.50
20103;BMP180;10210;52.284;9.892;2023-10-08T11:28:34;101641.00;;;22.60
20103;BMP180;10210;52.284;9.892;2023-10-08T11:31:03;101595.00;;;22.60
20103;BMP180;10210;52.284;9.892;2023-10-08T11:33:41;101618.00;;;22.60
20103;BMP180;10210;52.284;9.892;2023-10-08T11:36:09;101605.00;;;22.60
20103;BMP180;10210;52.284;9.892;2023-10-08T11:38:46;101637.00;;;22.70
20103;BMP180;10210;52.284;9.892;2023-10-08T11:41:17;101651.00;;;22.70
20103;BMP180;10210;52.284;9.892;2023-10-08T11:43:53;101658.00;;;22.70
20103;BMP180;10210;52.284;9.892;2023-10-08T11:46:33;101649.00;;;22.80
20103;BMP180;10210;52.284;9.892;2023-10-08T11:49:10;101641.00;;;22.90
20103;BMP180;10210;52.284;9.892;2023-10-08T11:51:45;101596.00;;;23.00
20103;BMP180;10210;52.284;9.892;2023-10-08T11:54:15;101599.00;;;23.00
20103;BMP180;10210;52.284;9.892;2023-10-08T11:56:42;101590.00;;;23.00
20103;BMP180;10210;52.284;9.892;2023-10-08T11:59:09;101591.00;;;23.00
20103;BMP180;10210;52.284;9.892;2023-10-08T12:01:36;101617.00;;;23.00
20103;BMP180;10210;52.284;9.892;2023-10-08T12:04:04;101627.00;;;23.00
20103;BMP180;10210;52.284;9.892;2023-10-08T12:06:30;101618.00;;;23.00
20103;BMP180;10210;52.284;9.892;2023-10-08T12:08:57;101622.00;;;23.00
20103;BMP180;10210;52.284;9.892;2023-10-08T12:11:26;101621.00;;;23.10
20103;BMP180;10210;52.284;9.892;2023-10-08T12:13:59;101617.00;;;23.10
20103;BMP180;10210;52.284;9.892;2023-10-08T12:16:26;101615.00;;;23.20
20103;BMP180;10210;52.284;9.892;2023-10-08T12:18:58;101613.00;;;23.20
20103;BMP180;10210;52.284;9.892;2023-10-08T12:21:31;101607.00;;;23.20
20103;BMP180;10210;52.284;9.892;2023-10-08T12:24:01;101618.00;;;23.20
20103;BMP180;10210;52.284;9.892;2023-10-08T12:26:31;101607.00;;;23.20
20103;BMP180;10210;52.284;9.892;2023-10-08T12:28:57;101614.00;;;23.20
20103;BMP180;10210;52.284;9.892;2023-10-08T12:31:23;101613.00;;;23.20
20103;BMP180;10210;52.284;9.892;2023-10-08T12:33:50;101614.00;;;23.10
20103;BMP180;10210;52.284;9.892;2023-10-08T12:36:20;101605.00;;;23.10
20103;BMP180;10210;52.284;9.892;2023-10-08T12:38:50;101600.00;;;23.00
20103;BMP180;10210;52.284;9.892;2023-10-08T12:41:26;101599.00;;;23.00
20103;BMP180;10210;52.284;9.892;2023-10-08T12:43:54;101587.00;;;23.00
20103;BMP180;10210;52.284;9.892;2023-10-08T12:46:21;101589.00;;;23.00
20103;BMP180;10210;52.284;9.892;2023-10-08T12:48:51;101577.00;;;23.00
20103;BMP180;10210;52.284;9.892;2023-10-08T12:51:22;101570.00;;;23.00
20103;BMP180;10210;52.284;9.892;2023-10-08T12:53:53;101557.00;;;23.00
20103;BMP180;10210;52.284;9.892;2023-10-08T12:56:30;101551.00;;;23.00
20103;BMP180;10210;52.284;9.892;2023-10-08T12:59:05;101541.00;;;23.00
20103;BMP180;10210;52.284;9.892;2023-10-08T13:01:35;101527.00;;;22.90
20103;BMP180;10210;52.284;9.892;2023-10-08T13:04:03;101525.00;;;22.90
20103;BMP180;10210;52.284;9.892;2023-10-08T13:06:36;101527.00;;;22.90
20103;BMP180;10210;52.284;9.892;2023-10-08T13:09:13;101527.00;;;23.00
20103;BMP180;10210;52.284;9.892;2023-10-08T13:11:40;101524.00;;;23.00
20103;BMP180;10210;52.284;9.892;2023-10-08T13:14:06;101530.00;;;23.10
20103;BMP180;10210;52.284;9.892;2023-10-08T13:16:32;101547.00;;;23.10
20103;BMP180;10210;52.284;9.892;2023-10-08T13:18:59;101550.00;;;23.20
20103;BMP180;10210;52.284;9.892;2023-10-08T13:21:28;101551.00;;;23.20
20103;BMP180;10210;52.284;9.892;2023-10-08T13:23:55;101563.00;;;23.20
20103;BMP180;10210;52.284;9.892;2023-10-08T13:26:26;101559.00;;;23.20
20103;BMP180;10210;52.284;9.892;2023-10-08T13:29:01;101564.00;;;23.20
20103;BMP180;10210;52.284;9.892;2023-10-08T13:31:27;101554.00;;;23.20
20103;BMP180;10210;52.284;9.892;2023-10-08T13:33:54;101563.00;;;23.20
20103;BMP180;10210;52.284;9.892;2023-10-08T13:36:23;101558.00;;;23.20
20103;BMP180;10210;52.284;9.892;2023-10-08T13:38:50;101563.00;;;23.10
20103;BMP180;10210;52.284;9.892;2023-10-08T13:41:17;101568.00;;;23.20
20103;BMP180;10210;52.284;9.892;2023-10-08T13:43:51;101567.00;;;23.10
20103;BMP180;10210;52.284;9.892;2023-10-08T13:46:27;101568.00;;;23.10
20103;BMP180;10210;52.284;9.892;2023-10-08T13:48:54;101560.00;;;23.10
20103;BMP180;10210;52.284;9.892;2023-10-08T13:51:24;101559.00;;;23.10
20103;BMP180;10210;52.284;9.892;2023-10-08T13:53:56;101549.00;;;23.10
20103;BMP180;10210;52.284;9.892;2023-10-08T13:56:29;101552.00;;;23.20
20103;BMP180;10210;52.284;9.892;2023-10-08T13:58:58;101541.00;;;23.20
20103;BMP180;10210;52.284;9.892;2023-10-08T14:01:42;101548.00;;;23.30
20103;BMP180;10210;52.284;9.892;2023-10-08T14:04:12;101563.00;;;23.40
20103;BMP180;10210;52.284;9.892;2023-10-08T14:06:42;101549.00;;;23.40
20103;BMP180;10210;52.284;9.892;2023-10-08T14:09:13;101529.00;;;23.50
20103;BMP180;10210;52.284;9.892;2023-10-08T14:11:47;101545.00;;;23.50
20103;BMP180;10210;52.284;9.892;2023-10-08T14:14:13;101539.00;;;23.50
20103;BMP180;10210;52.284;9.892;2023-10-08T14:16:42;101542.00;;;23.50
20103;BMP180;10210;52.284;9.892;2023-10-08T14:19:10;101552.00;;;23.60
20103;BMP180;10210;52.284;9.892;2023-10-08T14:21:41;101564.00;;;23.60
20103;BMP180;10210;52.284;9.892;2023-10-08T14:24:20;101570.00;;;23.60
20103;BMP180;10210;52.284;9.892;2023-10-08T14:26:47;101567.00;;;23.60
20103;BMP180;10210;52.284;9.892;2023-10-08T14:29:20;101565.00;;;23.60
20103;BMP180;10210;52.284;9.892;2023-10-08T14:31:46;101562.00;;;23.60
20103;BMP180;10210;52.284;9.892;2023-10-08T14:34:18;101569.00;;;23.60
20103;BMP180;10210;52.284;9.892;2023-10-08T14:36:49;101565.00;;;23.70
20103;BMP180;10210;52.284;9.892;2023-10-08T14:39:35;101571.00;;;23.70
20103;BMP180;10210;52.284;9.892;2023-10-08T14:42:20;101561.00;;;23.80